CST,Max TemperatureF,Mean TemperatureF,Min TemperatureF,Max Dew PointF,MeanDew PointF,Min DewpointF,Max Humidity, Mean Humidity, Min Humidity, Max Sea Level PressureIn, Mean Sea Level PressureIn, Min Sea Level PressureIn, Max VisibilityMiles, Mean VisibilityMiles, Min VisibilityMiles, Max Wind SpeedMPH, Mean Wind SpeedMPH, Max Gust SpeedMPH,PrecipitationIn, CloudCover, Events, WindDirDegrees
2012-12-1,80,74,68,70,67,62,100,89,60,30.13,30.07,30.01,10,10,10,13,10,,0.00,3,,186
2012-12-2,79,72,66,68,67,60,100,92,56,30.15,30.09,30.02,10,10,10,14,9,18,0.00,5,,177
2012-12-3,78,70,61,68,65,60,100,87,57,30.07,30.02,29.95,10,10,10,15,9,,0.00,4,,179
2012-12-4,76,67,55,68,61,44,100,86,33,30.21,30.11,30.02,10,8,1,12,3,18,0.01,6,Rain,4
2012-12-5,75,61,46,42,37,31,78,49,22,30.26,30.14,30.05,10,10,7,10,6,,0.00,0,,1
2012-12-6,72,57,42,59,53,39,100,92,47,30.04,29.97,29.84,10,6,0,10,4,,0.00,4,Fog,203
2012-12-7,77,64,51,67,61,52,100,94,59,29.88,29.84,29.77,10,6,0,14,2,18,0.00,6,Fog,191
2012-12-8,77,68,60,72,67,61,100,95,64,29.91,29.86,29.78,10,8,2,10,4,,0.01,6,Rain,175
2012-12-9,78,66,55,70,64,48,100,88,63,29.92,29.85,29.77,10,8,5,15,7,21,0.04,5,Rain-Thunderstorm,187
2012-12-10,55,46,36,48,27,14,77,46,31,30.15,30.04,29.89,10,10,10,24,13,40,0.00,4,,1
2012-12-11,55,42,28,27,22,18,81,52,24,30.24,30.16,30.09,10,10,10,12,4,,0.00,1,,29
2012-12-12,61,44,27,27,23,20,81,52,22,30.34,30.27,30.21,10,10,10,10,6,,0.00,0,,282
2012-12-13,64,47,30,49,38,26,89,64,43,30.30,30.24,30.17,10,10,10,10,6,16,0.00,4,,124
2012-12-14,70,62,55,67,58,48,100,85,67,30.17,30.03,29.86,10,9,3,23,7,29,0.00,8,Rain,124
2012-12-15,72,64,57,68,60,46,100,83,42,29.97,29.90,29.84,10,7,0,13,5,,0.02,6,Fog,31
2012-12-16,69,59,48,66,57,45,100,88,42,29.87,29.82,29.77,10,8,4,16,4,23,0.03,4,Rain,320
2012-12-17,73,60,44,45,34,28,89,47,18,30.00,29.91,29.87,10,7,3,15,6,20,0.00,0,,246
2012-12-18,81,62,44,65,38,30,100,51,29,29.93,29.88,29.77,10,7,4,13,4,,0.00,0,,217
2012-12-19,82,73,64,69,66,60,100,89,53,29.85,29.77,29.65,10,8,2,16,11,24,0.00,4,,193
2012-12-20,68,50,31,36,13,0,51,24,10,30.49,30.26,29.88,10,9,6,28,20,40,0.00,0,,334
2012-12-21,61,44,27,16,12,6,54,30,12,30.53,30.45,30.37,10,10,10,10,7,,0.00,1,,262
2012-12-22,66,50,33,56,40,18,81,60,39,30.37,30.23,30.09,10,10,10,16,6,25,0.00,3,,191
2012-12-23,66,62,57,60,57,55,99,86,72,30.07,29.98,29.90,10,10,9,9,7,,0.00,1,,221
2012-12-24,70,58,47,55,38,30,99,52,22,29.99,29.83,29.70,10,10,10,12,5,,0.00,3,,41
2012-12-25,70,53,35,65,44,19,96,61,18,30.14,29.73,29.58,10,10,10,32,9,43,0.00,4,,287
2012-12-26,50,39,28,20,18,16,61,47,29,30.29,30.18,30.12,10,10,10,22,12,29,0.00,0,,12
2012-12-27,46,36,27,46,38,20,100,87,60,30.10,29.93,29.82,10,7,1,9,5,,0.00,7,,39
2012-12-28,70,55,40,50,43,24,100,86,18,30.17,29.87,29.80,10,6,1,23,5,29,0.00,5,,349
2012-12-29,51,42,33,25,21,17,69,43,29,30.48,30.38,30.17,10,10,10,21,9,29,0.00,0,,357
2012-12-30,54,41,28,50,39,20,100,77,31,30.47,30.27,30.17,10,9,5,13,6,,0.00,5,,96
2012-12-31,61,55,49,61,55,49,100,100,100,30.17,30.02,29.90,10,4,1,12,5,,0.17,8,Rain,49